Maitland, Missouri
Current Conditions -  °F | °C
As of 11:16 AM on Sunday 23 Nov 2014 (Local Time) from KFNB Reporting Station
Overcast Overcast  
Wind Chill: 56°   Ceiling: 5000
Heat Index: 56°   Visibility: 10mi
Dew Point: 53°   Wind: 5mph
Humidity: 90%   Direction: 220°SW
Pressure: 29.43"   Gusts: NA
Location:  40.2°N, 95.07°W
Report Text: KFNB 231716Z AUTO 22004KT 10SM FEW011 SCT026 OVC050 13/12 A2943 RMK AO2 T01330117
Loading
Personal Weather Stations






























Interactive Weather Map New forecast layout! Learn more

10-Day Weather Forecast

Advertisements
Track Severe Weather on mobile